sensor_id;sensor_type;location;lat;lon;timestamp;P1;durP1;ratioP1;P2;durP2;ratioP2
53391;SDS011;41667;51.922;8.850;2022-12-20T00:01:59;3.67;;;2.47;;
53391;SDS011;41667;51.922;8.850;2022-12-20T00:04:24;4.05;;;2.50;;
53391;SDS011;41667;51.922;8.850;2022-12-20T00:06:49;3.90;;;2.63;;
53391;SDS011;41667;51.922;8.850;2022-12-20T00:09:14;4.60;;;2.17;;
53391;SDS011;41667;51.922;8.850;2022-12-20T00:11:40;3.40;;;2.27;;
53391;SDS011;41667;51.922;8.850;2022-12-20T00:14:06;3.13;;;2.45;;
53391;SDS011;41667;51.922;8.850;2022-12-20T00:16:31;4.43;;;2.72;;
53391;SDS011;41667;51.922;8.850;2022-12-20T00:18:58;2.78;;;2.15;;
53391;SDS011;41667;51.922;8.850;2022-12-20T00:21:23;3.33;;;2.40;;
53391;SDS011;41667;51.922;8.850;2022-12-20T00:23:49;4.07;;;3.08;;
53391;SDS011;41667;51.922;8.850;2022-12-20T00:26:15;2.40;;;2.05;;
53391;SDS011;41667;51.922;8.850;2022-12-20T00:28:41;3.63;;;2.35;;
53391;SDS011;41667;51.922;8.850;2022-12-20T00:31:07;5.80;;;2.20;;
53391;SDS011;41667;51.922;8.850;2022-12-20T00:33:33;5.32;;;3.10;;
53391;SDS011;41667;51.922;8.850;2022-12-20T00:35:58;4.35;;;2.50;;
53391;SDS011;41667;51.922;8.850;2022-12-20T00:38:23;5.27;;;2.20;;
53391;SDS011;41667;51.922;8.850;2022-12-20T00:43:44;2.92;;;2.58;;
53391;SDS011;41667;51.922;8.850;2022-12-20T00:46:10;4.68;;;2.45;;
53391;SDS011;41667;51.922;8.850;2022-12-20T00:48:35;4.53;;;2.78;;
53391;SDS011;41667;51.922;8.850;2022-12-20T00:51:02;5.65;;;2.63;;
53391;SDS011;41667;51.922;8.850;2022-12-20T00:53:27;2.67;;;2.38;;
53391;SDS011;41667;51.922;8.850;2022-12-20T00:55:52;2.33;;;2.17;;
53391;SDS011;41667;51.922;8.850;2022-12-20T00:58:17;3.55;;;2.47;;
53391;SDS011;41667;51.922;8.850;2022-12-20T01:00:43;5.35;;;2.50;;
53391;SDS011;41667;51.922;8.850;2022-12-20T01:03:08;2.50;;;2.30;;
53391;SDS011;41667;51.922;8.850;2022-12-20T01:05:33;2.88;;;2.25;;
53391;SDS011;41667;51.922;8.850;2022-12-20T01:07:59;2.90;;;2.60;;
53391;SDS011;41667;51.922;8.850;2022-12-20T01:10:24;4.57;;;2.10;;
53391;SDS011;41667;51.922;8.850;2022-12-20T01:12:50;3.03;;;2.13;;
53391;SDS011;41667;51.922;8.850;2022-12-20T01:15:15;3.73;;;2.97;;
53391;SDS011;41667;51.922;8.850;2022-12-20T01:17:40;4.13;;;2.63;;
53391;SDS011;41667;51.922;8.850;2022-12-20T01:20:05;4.47;;;2.40;;
53391;SDS011;41667;51.922;8.850;2022-12-20T01:22:31;4.75;;;2.30;;
53391;SDS011;41667;51.922;8.850;2022-12-20T01:24:56;2.57;;;2.30;;
53391;SDS011;41667;51.922;8.850;2022-12-20T01:27:21;2.40;;;1.80;;
53391;SDS011;41667;51.922;8.850;2022-12-20T01:29:46;2.40;;;2.20;;
53391;SDS011;41667;51.922;8.850;2022-12-20T01:32:12;4.97;;;2.05;;
53391;SDS011;41667;51.922;8.850;2022-12-20T01:34:37;2.50;;;2.30;;
53391;SDS011;41667;51.922;8.850;2022-12-20T01:37:02;2.27;;;2.10;;
53391;SDS011;41667;51.922;8.850;2022-12-20T01:39:27;2.40;;;2.20;;
53391;SDS011;41667;51.922;8.850;2022-12-20T01:41:52;3.10;;;2.47;;
53391;SDS011;41667;51.922;8.850;2022-12-20T01:46:47;2.15;;;1.95;;
53391;SDS011;41667;51.922;8.850;2022-12-20T01:49:13;4.20;;;1.92;;
53391;SDS011;41667;51.922;8.850;2022-12-20T01:51:42;2.53;;;2.13;;
53391;SDS011;41667;51.922;8.850;2022-12-20T01:54:11;2.75;;;1.95;;
53391;SDS011;41667;51.922;8.850;2022-12-20T01:56:38;2.10;;;1.90;;
53391;SDS011;41667;51.922;8.850;2022-12-20T01:59:05;2.33;;;1.98;;
53391;SDS011;41667;51.922;8.850;2022-12-20T02:01:30;1.98;;;1.80;;
53391;SDS011;41667;51.922;8.850;2022-12-20T02:03:56;2.03;;;1.85;;
53391;SDS011;41667;51.922;8.850;2022-12-20T02:06:22;2.35;;;2.00;;
53391;SDS011;41667;51.922;8.850;2022-12-20T02:08:48;1.85;;;1.67;;
53391;SDS011;41667;51.922;8.850;2022-12-20T02:11:30;2.72;;;2.00;;
53391;SDS011;41667;51.922;8.850;2022-12-20T02:16:28;2.53;;;1.98;;
53391;SDS011;41667;51.922;8.850;2022-12-20T02:19:09;3.40;;;1.60;;
53391;SDS011;41667;51.922;8.850;2022-12-20T02:21:41;1.90;;;1.63;;
53391;SDS011;41667;51.922;8.850;2022-12-20T02:34:31;2.15;;;1.98;;
53391;SDS011;41667;51.922;8.850;2022-12-20T02:36:56;5.95;;;2.05;;
53391;SDS011;41667;51.922;8.850;2022-12-20T02:39:22;2.93;;;2.10;;
53391;SDS011;41667;51.922;8.850;2022-12-20T02:41:52;4.80;;;1.95;;
53391;SDS011;41667;51.922;8.850;2022-12-20T02:44:19;2.15;;;1.75;;
53391;SDS011;41667;51.922;8.850;2022-12-20T02:47:06;1.92;;;1.70;;
53391;SDS011;41667;51.922;8.850;2022-12-20T02:49:33;2.03;;;1.70;;
53391;SDS011;41667;51.922;8.850;2022-12-20T02:52:02;1.52;;;1.40;;
53391;SDS011;41667;51.922;8.850;2022-12-20T02:54:28;3.17;;;1.67;;
53391;SDS011;41667;51.922;8.850;2022-12-20T02:56:59;2.35;;;1.80;;
53391;SDS011;41667;51.922;8.850;2022-12-20T02:59:29;1.55;;;1.45;;
53391;SDS011;41667;51.922;8.850;2022-12-20T03:01:56;3.13;;;1.75;;
53391;SDS011;41667;51.922;8.850;2022-12-20T03:04:25;4.55;;;1.90;;
53391;SDS011;41667;51.922;8.850;2022-12-20T03:06:58;1.92;;;1.70;;
53391;SDS011;41667;51.922;8.850;2022-12-20T03:09:23;1.98;;;1.85;;
53391;SDS011;41667;51.922;8.850;2022-12-20T03:11:49;2.47;;;1.97;;
53391;SDS011;41667;51.922;8.850;2022-12-20T03:14:14;3.00;;;2.17;;
53391;SDS011;41667;51.922;8.850;2022-12-20T03:16:39;6.25;;;4.03;;
53391;SDS011;41667;51.922;8.850;2022-12-20T03:19:04;7.03;;;4.28;;
53391;SDS011;41667;51.922;8.850;2022-12-20T03:21:30;9.55;;;5.00;;
53391;SDS011;41667;51.922;8.850;2022-12-20T03:23:55;8.97;;;6.30;;
53391;SDS011;41667;51.922;8.850;2022-12-20T03:26:20;10.30;;;6.60;;
53391;SDS011;41667;51.922;8.850;2022-12-20T03:28:45;12.88;;;6.90;;
53391;SDS011;41667;51.922;8.850;2022-12-20T03:31:10;13.25;;;8.05;;
53391;SDS011;41667;51.922;8.850;2022-12-20T03:33:35;10.02;;;6.68;;
53391;SDS011;41667;51.922;8.850;2022-12-20T03:36:00;14.70;;;7.60;;
53391;SDS011;41667;51.922;8.850;2022-12-20T03:38:26;16.10;;;8.05;;
53391;SDS011;41667;51.922;8.850;2022-12-20T03:40:51;12.38;;;8.13;;
53391;SDS011;41667;51.922;8.850;2022-12-20T03:43:16;13.27;;;8.70;;
53391;SDS011;41667;51.922;8.850;2022-12-20T03:45:41;15.00;;;8.02;;
53391;SDS011;41667;51.922;8.850;2022-12-20T03:48:06;17.83;;;8.77;;
53391;SDS011;41667;51.922;8.850;2022-12-20T03:50:31;16.07;;;8.80;;
53391;SDS011;41667;51.922;8.850;2022-12-20T03:52:56;14.27;;;8.35;;
53391;SDS011;41667;51.922;8.850;2022-12-20T03:55:22;21.45;;;9.85;;
53391;SDS011;41667;51.922;8.850;2022-12-20T03:57:47;16.17;;;10.32;;
53391;SDS011;41667;51.922;8.850;2022-12-20T04:00:13;16.17;;;9.88;;
53391;SDS011;41667;51.922;8.850;2022-12-20T04:02:38;19.48;;;12.25;;
53391;SDS011;41667;51.922;8.850;2022-12-20T04:05:03;23.77;;;13.97;;
53391;SDS011;41667;51.922;8.850;2022-12-20T04:07:29;25.38;;;14.18;;
53391;SDS011;41667;51.922;8.850;2022-12-20T04:09:54;25.52;;;13.65;;
53391;SDS011;41667;51.922;8.850;2022-12-20T04:12:19;22.37;;;13.80;;
53391;SDS011;41667;51.922;8.850;2022-12-20T04:14:44;22.00;;;13.32;;
53391;SDS011;41667;51.922;8.850;2022-12-20T04:17:09;23.60;;;13.10;;
53391;SDS011;41667;51.922;8.850;2022-12-20T04:19:34;25.38;;;13.70;;
53391;SDS011;41667;51.922;8.850;2022-12-20T04:22:00;26.10;;;15.90;;
53391;SDS011;41667;51.922;8.850;2022-12-20T04:24:25;23.48;;;12.45;;
53391;SDS011;41667;51.922;8.850;2022-12-20T04:26:50;26.33;;;14.60;;
53391;SDS011;41667;51.922;8.850;2022-12-20T04:29:15;27.33;;;13.05;;
53391;SDS011;41667;51.922;8.850;2022-12-20T04:31:40;24.93;;;13.77;;
53391;SDS011;41667;51.922;8.850;2022-12-20T04:34:06;25.48;;;12.98;;
53391;SDS011;41667;51.922;8.850;2022-12-20T04:36:31;24.02;;;10.85;;
53391;SDS011;41667;51.922;8.850;2022-12-20T04:38:56;18.90;;;10.37;;
53391;SDS011;41667;51.922;8.850;2022-12-20T04:41:21;17.73;;;11.60;;
53391;SDS011;41667;51.922;8.850;2022-12-20T04:43:50;17.27;;;9.67;;
53391;SDS011;41667;51.922;8.850;2022-12-20T04:46:16;13.23;;;7.72;;
53391;SDS011;41667;51.922;8.850;2022-12-20T04:48:41;9.00;;;5.53;;
53391;SDS011;41667;51.922;8.850;2022-12-20T04:51:06;7.87;;;5.00;;
53391;SDS011;41667;51.922;8.850;2022-12-20T04:53:32;7.87;;;5.10;;
53391;SDS011;41667;51.922;8.850;2022-12-20T04:56:33;7.47;;;4.40;;
53391;SDS011;41667;51.922;8.850;2022-12-20T04:58:57;5.70;;;4.10;;
53391;SDS011;41667;51.922;8.850;2022-12-20T05:01:23;7.65;;;4.30;;
53391;SDS011;41667;51.922;8.850;2022-12-20T05:03:48;9.65;;;4.82;;
53391;SDS011;41667;51.922;8.850;2022-12-20T05:06:13;9.23;;;3.60;;
53391;SDS011;41667;51.922;8.850;2022-12-20T05:08:39;7.22;;;4.75;;
53391;SDS011;41667;51.922;8.850;2022-12-20T05:11:04;8.38;;;5.25;;
53391;SDS011;41667;51.922;8.850;2022-12-20T05:13:29;11.05;;;6.70;;
53391;SDS011;41667;51.922;8.850;2022-12-20T05:15:55;11.38;;;5.75;;
53391;SDS011;41667;51.922;8.850;2022-12-20T05:18:20;10.00;;;7.53;;
53391;SDS011;41667;51.922;8.850;2022-12-20T05:20:46;15.32;;;7.20;;
53391;SDS011;41667;51.922;8.850;2022-12-20T05:23:11;14.60;;;8.75;;
53391;SDS011;41667;51.922;8.850;2022-12-20T05:25:55;16.67;;;8.85;;
53391;SDS011;41667;51.922;8.850;2022-12-20T05:28:39;18.38;;;9.40;;
53391;SDS011;41667;51.922;8.850;2022-12-20T05:31:04;15.65;;;9.52;;
53391;SDS011;41667;51.922;8.850;2022-12-20T05:33:29;18.40;;;9.07;;
53391;SDS011;41667;51.922;8.850;2022-12-20T05:35:54;13.45;;;8.35;;
53391;SDS011;41667;51.922;8.850;2022-12-20T05:40:54;8.30;;;5.10;;
53391;SDS011;41667;51.922;8.850;2022-12-20T05:43:20;8.23;;;6.03;;
53391;SDS011;41667;51.922;8.850;2022-12-20T05:45:49;6.57;;;4.63;;
53391;SDS011;41667;51.922;8.850;2022-12-20T05:48:14;6.05;;;4.63;;
53391;SDS011;41667;51.922;8.850;2022-12-20T05:50:40;8.13;;;5.03;;
53391;SDS011;41667;51.922;8.850;2022-12-20T05:53:08;6.78;;;3.85;;
53391;SDS011;41667;51.922;8.850;2022-12-20T05:55:33;6.43;;;4.95;;
53391;SDS011;41667;51.922;8.850;2022-12-20T05:57:59;6.85;;;4.63;;
53391;SDS011;41667;51.922;8.850;2022-12-20T06:00:24;7.10;;;5.37;;
53391;SDS011;41667;51.922;8.850;2022-12-20T06:02:50;5.80;;;4.40;;
53391;SDS011;41667;51.922;8.850;2022-12-20T06:05:15;6.77;;;4.53;;
53391;SDS011;41667;51.922;8.850;2022-12-20T06:07:40;9.25;;;5.40;;
53391;SDS011;41667;51.922;8.850;2022-12-20T06:10:06;10.32;;;4.35;;
53391;SDS011;41667;51.922;8.850;2022-12-20T06:12:31;8.18;;;5.35;;
53391;SDS011;41667;51.922;8.850;2022-12-20T06:14:57;9.75;;;5.60;;
53391;SDS011;41667;51.922;8.850;2022-12-20T06:17:22;10.50;;;5.28;;
53391;SDS011;41667;51.922;8.850;2022-12-20T06:19:47;8.00;;;4.60;;
53391;SDS011;41667;51.922;8.850;2022-12-20T06:22:12;9.05;;;5.05;;
53391;SDS011;41667;51.922;8.850;2022-12-20T06:24:37;11.27;;;5.53;;
53391;SDS011;41667;51.922;8.850;2022-12-20T06:27:03;7.85;;;5.93;;
53391;SDS011;41667;51.922;8.850;2022-12-20T06:29:28;9.93;;;5.07;;
53391;SDS011;41667;51.922;8.850;2022-12-20T06:31:54;10.88;;;5.53;;
53391;SDS011;41667;51.922;8.850;2022-12-20T06:34:19;11.18;;;5.60;;
53391;SDS011;41667;51.922;8.850;2022-12-20T06:36:44;7.97;;;5.35;;
53391;SDS011;41667;51.922;8.850;2022-12-20T06:39:09;5.77;;;4.97;;
53391;SDS011;41667;51.922;8.850;2022-12-20T06:41:35;9.93;;;5.30;;
53391;SDS011;41667;51.922;8.850;2022-12-20T06:44:00;7.20;;;4.78;;
53391;SDS011;41667;51.922;8.850;2022-12-20T06:46:25;8.65;;;5.30;;
53391;SDS011;41667;51.922;8.850;2022-12-20T06:48:51;7.18;;;4.28;;
53391;SDS011;41667;51.922;8.850;2022-12-20T06:51:16;5.67;;;4.40;;
53391;SDS011;41667;51.922;8.850;2022-12-20T06:53:41;8.47;;;4.97;;
53391;SDS011;41667;51.922;8.850;2022-12-20T06:56:06;8.73;;;4.72;;
53391;SDS011;41667;51.922;8.850;2022-12-20T06:58:32;9.40;;;5.47;;
53391;SDS011;41667;51.922;8.850;2022-12-20T07:00:57;7.75;;;4.05;;
53391;SDS011;41667;51.922;8.850;2022-12-20T07:03:22;8.02;;;4.88;;
53391;SDS011;41667;51.922;8.850;2022-12-20T07:05:53;7.83;;;5.00;;
53391;SDS011;41667;51.922;8.850;2022-12-20T07:10:44;6.00;;;4.57;;
53391;SDS011;41667;51.922;8.850;2022-12-20T07:13:09;6.13;;;4.37;;
53391;SDS011;41667;51.922;8.850;2022-12-20T07:15:34;6.03;;;4.00;;
53391;SDS011;41667;51.922;8.850;2022-12-20T07:17:59;5.43;;;4.07;;
53391;SDS011;41667;51.922;8.850;2022-12-20T07:20:25;9.10;;;5.55;;
53391;SDS011;41667;51.922;8.850;2022-12-20T07:22:50;6.68;;;3.88;;
53391;SDS011;41667;51.922;8.850;2022-12-20T07:25:15;6.03;;;4.68;;
53391;SDS011;41667;51.922;8.850;2022-12-20T07:27:40;7.78;;;4.25;;
53391;SDS011;41667;51.922;8.850;2022-12-20T07:30:06;7.30;;;4.20;;
53391;SDS011;41667;51.922;8.850;2022-12-20T07:32:31;6.50;;;4.18;;
53391;SDS011;41667;51.922;8.850;2022-12-20T07:34:56;8.07;;;5.40;;
53391;SDS011;41667;51.922;8.850;2022-12-20T07:37:21;6.37;;;4.60;;
53391;SDS011;41667;51.922;8.850;2022-12-20T07:39:47;5.50;;;4.00;;
53391;SDS011;41667;51.922;8.850;2022-12-20T07:42:12;10.60;;;7.50;;
53391;SDS011;41667;51.922;8.850;2022-12-20T07:44:37;11.83;;;8.73;;
53391;SDS011;41667;51.922;8.850;2022-12-20T07:47:02;15.90;;;8.68;;
53391;SDS011;41667;51.922;8.850;2022-12-20T07:49:27;21.90;;;11.48;;
53391;SDS011;41667;51.922;8.850;2022-12-20T07:51:54;18.45;;;11.25;;
53391;SDS011;41667;51.922;8.850;2022-12-20T07:56:45;20.10;;;10.77;;
53391;SDS011;41667;51.922;8.850;2022-12-20T07:59:12;20.17;;;11.25;;
53391;SDS011;41667;51.922;8.850;2022-12-20T08:01:38;19.13;;;11.15;;
53391;SDS011;41667;51.922;8.850;2022-12-20T08:04:05;22.27;;;12.45;;
53391;SDS011;41667;51.922;8.850;2022-12-20T08:06:31;21.45;;;13.27;;
53391;SDS011;41667;51.922;8.850;2022-12-20T08:08:57;26.20;;;14.70;;
53391;SDS011;41667;51.922;8.850;2022-12-20T08:11:25;22.63;;;14.65;;
53391;SDS011;41667;51.922;8.850;2022-12-20T08:13:51;23.05;;;13.57;;
53391;SDS011;41667;51.922;8.850;2022-12-20T08:16:17;26.08;;;16.05;;
53391;SDS011;41667;51.922;8.850;2022-12-20T08:18:42;31.57;;;17.60;;
53391;SDS011;41667;51.922;8.850;2022-12-20T08:21:07;30.30;;;16.53;;
53391;SDS011;41667;51.922;8.850;2022-12-20T08:23:32;32.87;;;19.53;;
53391;SDS011;41667;51.922;8.850;2022-12-20T08:25:59;27.42;;;16.17;;
53391;SDS011;41667;51.922;8.850;2022-12-20T08:28:24;29.73;;;18.35;;
53391;SDS011;41667;51.922;8.850;2022-12-20T08:30:49;30.23;;;17.80;;
53391;SDS011;41667;51.922;8.850;2022-12-20T08:33:14;29.97;;;17.87;;
53391;SDS011;41667;51.922;8.850;2022-12-20T08:35:40;30.03;;;17.73;;
53391;SDS011;41667;51.922;8.850;2022-12-20T08:38:05;28.77;;;17.80;;
53391;SDS011;41667;51.922;8.850;2022-12-20T08:40:30;30.77;;;17.80;;
53391;SDS011;41667;51.922;8.850;2022-12-20T08:42:55;25.75;;;16.23;;
53391;SDS011;41667;51.922;8.850;2022-12-20T08:45:20;29.70;;;16.77;;
53391;SDS011;41667;51.922;8.850;2022-12-20T08:47:45;34.50;;;17.33;;
53391;SDS011;41667;51.922;8.850;2022-12-20T08:50:11;21.20;;;14.25;;
53391;SDS011;41667;51.922;8.850;2022-12-20T08:52:37;17.02;;;12.43;;
53391;SDS011;41667;51.922;8.850;2022-12-20T08:55:03;15.25;;;10.48;;
53391;SDS011;41667;51.922;8.850;2022-12-20T08:57:29;24.02;;;12.02;;
53391;SDS011;41667;51.922;8.850;2022-12-20T08:59:54;18.93;;;11.40;;
53391;SDS011;41667;51.922;8.850;2022-12-20T09:02:19;13.77;;;8.27;;
53391;SDS011;41667;51.922;8.850;2022-12-20T09:04:44;9.68;;;6.57;;
53391;SDS011;41667;51.922;8.850;2022-12-20T09:07:10;10.60;;;6.80;;
53391;SDS011;41667;51.922;8.850;2022-12-20T09:09:35;6.95;;;4.30;;
53391;SDS011;41667;51.922;8.850;2022-12-20T09:12:00;4.43;;;3.80;;
53391;SDS011;41667;51.922;8.850;2022-12-20T09:14:25;3.30;;;2.60;;
53391;SDS011;41667;51.922;8.850;2022-12-20T09:16:50;5.50;;;3.60;;
53391;SDS011;41667;51.922;8.850;2022-12-20T09:19:15;3.30;;;3.00;;
53391;SDS011;41667;51.922;8.850;2022-12-20T09:21:41;3.50;;;2.60;;
53391;SDS011;41667;51.922;8.850;2022-12-20T09:24:06;2.60;;;2.40;;
53391;SDS011;41667;51.922;8.850;2022-12-20T09:26:32;3.80;;;2.30;;
53391;SDS011;41667;51.922;8.850;2022-12-20T09:28:59;3.70;;;2.90;;
53391;SDS011;41667;51.922;8.850;2022-12-20T09:31:25;3.75;;;3.00;;
53391;SDS011;41667;51.922;8.850;2022-12-20T09:33:54;3.45;;;2.60;;
53391;SDS011;41667;51.922;8.850;2022-12-20T09:36:20;3.63;;;2.28;;
53391;SDS011;41667;51.922;8.850;2022-12-20T09:38:45;2.88;;;2.67;;
53391;SDS011;41667;51.922;8.850;2022-12-20T09:41:19;3.40;;;2.55;;
53391;SDS011;41667;51.922;8.850;2022-12-20T09:43:46;2.75;;;2.45;;
53391;SDS011;41667;51.922;8.850;2022-12-20T09:46:12;2.55;;;2.35;;
53391;SDS011;41667;51.922;8.850;2022-12-20T09:48:38;6.13;;;2.95;;
53391;SDS011;41667;51.922;8.850;2022-12-20T09:51:17;4.72;;;3.10;;
53391;SDS011;41667;51.922;8.850;2022-12-20T09:56:27;4.35;;;3.55;;
53391;SDS011;41667;51.922;8.850;2022-12-20T10:01:26;4.97;;;3.17;;
53391;SDS011;41667;51.922;8.850;2022-12-20T10:03:52;5.38;;;3.03;;
53391;SDS011;41667;51.922;8.850;2022-12-20T10:06:27;3.42;;;3.05;;
53391;SDS011;41667;51.922;8.850;2022-12-20T10:08:57;5.28;;;3.70;;
53391;SDS011;41667;51.922;8.850;2022-12-20T10:14:05;3.13;;;2.85;;
53391;SDS011;41667;51.922;8.850;2022-12-20T10:16:35;3.58;;;2.88;;
53391;SDS011;41667;51.922;8.850;2022-12-20T10:19:12;6.10;;;3.30;;
53391;SDS011;41667;51.922;8.850;2022-12-20T10:24:28;4.43;;;3.05;;
53391;SDS011;41667;51.922;8.850;2022-12-20T10:26:54;6.53;;;2.92;;
53391;SDS011;41667;51.922;8.850;2022-12-20T10:29:20;4.88;;;3.38;;
53391;SDS011;41667;51.922;8.850;2022-12-20T10:31:45;4.70;;;3.55;;
53391;SDS011;41667;51.922;8.850;2022-12-20T10:34:11;5.18;;;3.47;;
53391;SDS011;41667;51.922;8.850;2022-12-20T10:36:36;4.27;;;3.07;;
53391;SDS011;41667;51.922;8.850;2022-12-20T10:39:05;3.47;;;3.17;;
53391;SDS011;41667;51.922;8.850;2022-12-20T10:46:41;3.22;;;2.92;;
53391;SDS011;41667;51.922;8.850;2022-12-20T10:49:19;4.70;;;3.35;;
53391;SDS011;41667;51.922;8.850;2022-12-20T10:51:50;4.68;;;2.67;;
53391;SDS011;41667;51.922;8.850;2022-12-20T10:54:23;6.40;;;3.10;;
53391;SDS011;41667;51.922;8.850;2022-12-20T10:56:58;5.90;;;3.25;;
53391;SDS011;41667;51.922;8.850;2022-12-20T11:01:49;7.20;;;3.67;;
53391;SDS011;41667;51.922;8.850;2022-12-20T11:04:25;4.18;;;3.28;;
53391;SDS011;41667;51.922;8.850;2022-12-20T11:06:51;4.05;;;3.65;;
53391;SDS011;41667;51.922;8.850;2022-12-20T11:11:55;5.60;;;3.38;;
53391;SDS011;41667;51.922;8.850;2022-12-20T11:14:20;5.07;;;3.33;;
53391;SDS011;41667;51.922;8.850;2022-12-20T11:16:46;4.05;;;3.17;;
53391;SDS011;41667;51.922;8.850;2022-12-20T11:21:57;5.95;;;3.45;;
53391;SDS011;41667;51.922;8.850;2022-12-20T11:27:02;4.70;;;3.25;;
53391;SDS011;41667;51.922;8.850;2022-12-20T11:29:38;6.28;;;3.40;;
53391;SDS011;41667;51.922;8.850;2022-12-20T11:37:30;5.78;;;3.35;;
53391;SDS011;41667;51.922;8.850;2022-12-20T11:42:35;4.18;;;2.97;;
53391;SDS011;41667;51.922;8.850;2022-12-20T11:47:40;3.25;;;2.90;;
53391;SDS011;41667;51.922;8.850;2022-12-20T11:52:49;9.02;;;2.90;;
53391;SDS011;41667;51.922;8.850;2022-12-20T11:55:21;3.60;;;3.22;;
53391;SDS011;41667;51.922;8.850;2022-12-20T12:00:23;5.68;;;2.58;;
53391;SDS011;41667;51.922;8.850;2022-12-20T12:03:00;4.65;;;3.08;;
53391;SDS011;41667;51.922;8.850;2022-12-20T12:07:55;3.05;;;2.63;;
53391;SDS011;41667;51.922;8.850;2022-12-20T12:10:22;4.13;;;2.80;;
53391;SDS011;41667;51.922;8.850;2022-12-20T12:18:02;10.02;;;3.05;;
53391;SDS011;41667;51.922;8.850;2022-12-20T12:25:40;2.95;;;2.25;;
53391;SDS011;41667;51.922;8.850;2022-12-20T12:28:05;2.33;;;2.13;;
53391;SDS011;41667;51.922;8.850;2022-12-20T12:30:35;2.13;;;1.93;;
53391;SDS011;41667;51.922;8.850;2022-12-20T12:33:02;3.22;;;2.13;;
53391;SDS011;41667;51.922;8.850;2022-12-20T12:43:44;7.35;;;5.38;;
53391;SDS011;41667;51.922;8.850;2022-12-20T12:46:17;7.35;;;5.22;;
53391;SDS011;41667;51.922;8.850;2022-12-20T12:51:09;7.00;;;6.18;;
53391;SDS011;41667;51.922;8.850;2022-12-20T12:53:42;10.90;;;6.93;;
53391;SDS011;41667;51.922;8.850;2022-12-20T12:56:43;9.45;;;7.32;;
53391;SDS011;41667;51.922;8.850;2022-12-20T12:59:07;9.07;;;6.80;;
53391;SDS011;41667;51.922;8.850;2022-12-20T13:09:19;8.20;;;5.60;;
53391;SDS011;41667;51.922;8.850;2022-12-20T13:11:45;9.50;;;4.68;;
53391;SDS011;41667;51.922;8.850;2022-12-20T13:14:45;4.15;;;3.13;;
53391;SDS011;41667;51.922;8.850;2022-12-20T13:21:56;3.33;;;2.88;;
53391;SDS011;41667;51.922;8.850;2022-12-20T13:29:50;4.00;;;2.50;;
53391;SDS011;41667;51.922;8.850;2022-12-20T13:35:00;2.60;;;2.40;;
53391;SDS011;41667;51.922;8.850;2022-12-20T13:40:18;3.72;;;2.45;;
53391;SDS011;41667;51.922;8.850;2022-12-20T13:42:46;3.13;;;2.50;;
53391;SDS011;41667;51.922;8.850;2022-12-20T13:45:12;4.18;;;2.10;;
53391;SDS011;41667;51.922;8.850;2022-12-20T13:47:43;3.00;;;2.50;;
53391;SDS011;41667;51.922;8.850;2022-12-20T13:52:37;3.10;;;2.78;;
53391;SDS011;41667;51.922;8.850;2022-12-20T13:55:14;2.80;;;2.60;;
53391;SDS011;41667;51.922;8.850;2022-12-20T13:57:41;2.83;;;2.53;;
53391;SDS011;41667;51.922;8.850;2022-12-20T14:00:15;4.47;;;2.92;;
53391;SDS011;41667;51.922;8.850;2022-12-20T14:02:41;2.40;;;2.20;;
53391;SDS011;41667;51.922;8.850;2022-12-20T14:05:15;4.18;;;2.45;;
53391;SDS011;41667;51.922;8.850;2022-12-20T14:07:41;2.70;;;2.35;;
53391;SDS011;41667;51.922;8.850;2022-12-20T14:10:18;2.50;;;2.30;;
53391;SDS011;41667;51.922;8.850;2022-12-20T14:12:44;5.28;;;2.65;;
53391;SDS011;41667;51.922;8.850;2022-12-20T14:18:05;3.00;;;2.22;;
53391;SDS011;41667;51.922;8.850;2022-12-20T14:20:47;3.25;;;2.05;;
53391;SDS011;41667;51.922;8.850;2022-12-20T14:23:18;2.65;;;2.28;;
53391;SDS011;41667;51.922;8.850;2022-12-20T14:25:48;3.03;;;2.50;;
53391;SDS011;41667;51.922;8.850;2022-12-20T14:30:49;3.75;;;2.50;;
53391;SDS011;41667;51.922;8.850;2022-12-20T14:33:18;5.05;;;2.20;;
53391;SDS011;41667;51.922;8.850;2022-12-20T14:35:47;2.58;;;2.38;;
53391;SDS011;41667;51.922;8.850;2022-12-20T14:38:18;3.58;;;2.45;;
53391;SDS011;41667;51.922;8.850;2022-12-20T14:40:44;4.10;;;2.25;;
53391;SDS011;41667;51.922;8.850;2022-12-20T14:43:13;3.22;;;2.40;;
53391;SDS011;41667;51.922;8.850;2022-12-20T14:45:40;3.58;;;2.15;;
53391;SDS011;41667;51.922;8.850;2022-12-20T14:48:11;3.90;;;2.00;;
53391;SDS011;41667;51.922;8.850;2022-12-20T14:50:39;3.00;;;1.95;;
53391;SDS011;41667;51.922;8.850;2022-12-20T14:53:16;2.60;;;2.28;;
53391;SDS011;41667;51.922;8.850;2022-12-20T14:55:44;3.33;;;2.30;;
53391;SDS011;41667;51.922;8.850;2022-12-20T14:58:29;2.25;;;1.95;;
53391;SDS011;41667;51.922;8.850;2022-12-20T15:00:56;3.75;;;1.88;;
53391;SDS011;41667;51.922;8.850;2022-12-20T15:03:23;4.28;;;1.85;;
53391;SDS011;41667;51.922;8.850;2022-12-20T15:05:53;6.20;;;2.13;;
53391;SDS011;41667;51.922;8.850;2022-12-20T15:10:53;1.63;;;1.52;;
53391;SDS011;41667;51.922;8.850;2022-12-20T15:13:21;2.28;;;1.77;;
53391;SDS011;41667;51.922;8.850;2022-12-20T15:15:47;3.55;;;1.98;;
53391;SDS011;41667;51.922;8.850;2022-12-20T15:18:14;4.07;;;1.90;;
53391;SDS011;41667;51.922;8.850;2022-12-20T15:20:40;4.35;;;2.25;;
53391;SDS011;41667;51.922;8.850;2022-12-20T15:23:09;2.42;;;1.98;;
53391;SDS011;41667;51.922;8.850;2022-12-20T15:25:39;2.50;;;1.98;;
53391;SDS011;41667;51.922;8.850;2022-12-20T15:28:21;2.28;;;1.80;;
53391;SDS011;41667;51.922;8.850;2022-12-20T15:30:48;5.38;;;2.63;;
53391;SDS011;41667;51.922;8.850;2022-12-20T15:33:15;2.20;;;2.05;;
53391;SDS011;41667;51.922;8.850;2022-12-20T15:35:42;4.70;;;2.20;;
53391;SDS011;41667;51.922;8.850;2022-12-20T15:38:12;4.60;;;2.30;;
53391;SDS011;41667;51.922;8.850;2022-12-20T15:40:38;3.55;;;2.10;;
53391;SDS011;41667;51.922;8.850;2022-12-20T15:43:04;4.07;;;2.40;;
53391;SDS011;41667;51.922;8.850;2022-12-20T15:45:33;3.15;;;2.20;;
53391;SDS011;41667;51.922;8.850;2022-12-20T15:47:59;3.53;;;2.47;;
53391;SDS011;41667;51.922;8.850;2022-12-20T15:50:25;3.35;;;3.05;;
53391;SDS011;41667;51.922;8.850;2022-12-20T15:52:54;5.35;;;2.75;;
53391;SDS011;41667;51.922;8.850;2022-12-20T15:55:20;4.40;;;2.95;;
53391;SDS011;41667;51.922;8.850;2022-12-20T15:57:46;3.53;;;2.90;;
53391;SDS011;41667;51.922;8.850;2022-12-20T16:00:12;2.75;;;2.55;;
53391;SDS011;41667;51.922;8.850;2022-12-20T16:02:38;3.65;;;3.25;;
53391;SDS011;41667;51.922;8.850;2022-12-20T16:05:04;6.30;;;4.25;;
53391;SDS011;41667;51.922;8.850;2022-12-20T16:07:33;4.22;;;2.95;;
53391;SDS011;41667;51.922;8.850;2022-12-20T16:09:59;9.85;;;2.78;;
53391;SDS011;41667;51.922;8.850;2022-12-20T16:12:29;6.15;;;3.22;;
53391;SDS011;41667;51.922;8.850;2022-12-20T16:14:56;3.92;;;3.30;;
53391;SDS011;41667;51.922;8.850;2022-12-20T16:17:22;3.58;;;3.10;;
53391;SDS011;41667;51.922;8.850;2022-12-20T16:19:48;4.30;;;2.83;;
53391;SDS011;41667;51.922;8.850;2022-12-20T16:22:17;4.28;;;3.00;;
53391;SDS011;41667;51.922;8.850;2022-12-20T16:24:44;3.50;;;3.17;;
53391;SDS011;41667;51.922;8.850;2022-12-20T16:27:10;3.97;;;3.38;;
53391;SDS011;41667;51.922;8.850;2022-12-20T16:29:39;6.93;;;3.10;;
53391;SDS011;41667;51.922;8.850;2022-12-20T16:32:23;5.65;;;3.33;;
53391;SDS011;41667;51.922;8.850;2022-12-20T16:34:51;4.15;;;2.60;;
53391;SDS011;41667;51.922;8.850;2022-12-20T16:37:17;3.85;;;3.45;;
53391;SDS011;41667;51.922;8.850;2022-12-20T16:39:44;5.43;;;3.10;;
53391;SDS011;41667;51.922;8.850;2022-12-20T16:42:16;4.18;;;2.85;;
53391;SDS011;41667;51.922;8.850;2022-12-20T16:44:43;3.15;;;2.63;;
53391;SDS011;41667;51.922;8.850;2022-12-20T16:47:09;7.60;;;2.80;;
53391;SDS011;41667;51.922;8.850;2022-12-20T16:49:35;2.75;;;2.47;;